sensor_id;sensor_type;location;lat;lon;timestamp;P1;durP1;ratioP1;P2;durP2;ratioP2
13706;SDS011;6925;47.816;13.072;2022-10-03T00:03:44;2.05;;;1.10;;
13706;SDS011;6925;47.816;13.072;2022-10-03T00:06:26;2.70;;;0.90;;
13706;SDS011;6925;47.816;13.072;2022-10-03T00:09:26;3.35;;;1.27;;
13706;SDS011;6925;47.816;13.072;2022-10-03T00:12:03;3.90;;;1.00;;
13706;SDS011;6925;47.816;13.072;2022-10-03T00:14:43;1.98;;;0.80;;
13706;SDS011;6925;47.816;13.072;2022-10-03T00:17:20;1.58;;;0.80;;
13706;SDS011;6925;47.816;13.072;2022-10-03T00:19:57;2.45;;;1.00;;
13706;SDS011;6925;47.816;13.072;2022-10-03T00:22:33;4.45;;;1.15;;
13706;SDS011;6925;47.816;13.072;2022-10-03T00:25:16;2.08;;;1.13;;
13706;SDS011;6925;47.816;13.072;2022-10-03T00:27:55;4.40;;;1.33;;
13706;SDS011;6925;47.816;13.072;2022-10-03T00:30:43;2.72;;;1.30;;
13706;SDS011;6925;47.816;13.072;2022-10-03T00:33:22;3.38;;;1.45;;
13706;SDS011;6925;47.816;13.072;2022-10-03T00:36:00;2.92;;;1.55;;
13706;SDS011;6925;47.816;13.072;2022-10-03T00:44:48;3.00;;;1.70;;
13706;SDS011;6925;47.816;13.072;2022-10-03T00:47:50;4.80;;;1.85;;
13706;SDS011;6925;47.816;13.072;2022-10-03T00:53:44;4.00;;;1.55;;
13706;SDS011;6925;47.816;13.072;2022-10-03T00:56:34;3.38;;;1.50;;
13706;SDS011;6925;47.816;13.072;2022-10-03T00:59:25;3.38;;;1.50;;
13706;SDS011;6925;47.816;13.072;2022-10-03T01:02:02;1.95;;;1.05;;
13706;SDS011;6925;47.816;13.072;2022-10-03T01:07:26;2.00;;;0.80;;
13706;SDS011;6925;47.816;13.072;2022-10-03T01:10:19;2.25;;;0.95;;
13706;SDS011;6925;47.816;13.072;2022-10-03T01:12:56;4.10;;;1.00;;
13706;SDS011;6925;47.816;13.072;2022-10-03T01:15:47;2.90;;;0.95;;
13706;SDS011;6925;47.816;13.072;2022-10-03T01:18:25;2.33;;;1.02;;
13706;SDS011;6925;47.816;13.072;2022-10-03T01:21:05;2.90;;;1.05;;
13706;SDS011;6925;47.816;13.072;2022-10-03T01:23:46;3.28;;;1.23;;
13706;SDS011;6925;47.816;13.072;2022-10-03T01:26:48;3.55;;;1.23;;
13706;SDS011;6925;47.816;13.072;2022-10-03T01:29:23;6.03;;;1.30;;
13706;SDS011;6925;47.816;13.072;2022-10-03T01:32:19;4.22;;;1.20;;
13706;SDS011;6925;47.816;13.072;2022-10-03T01:34:53;2.88;;;1.38;;
13706;SDS011;6925;47.816;13.072;2022-10-03T01:37:28;3.92;;;1.38;;
13706;SDS011;6925;47.816;13.072;2022-10-03T01:40:02;3.53;;;1.38;;
13706;SDS011;6925;47.816;13.072;2022-10-03T01:42:38;3.67;;;1.40;;
13706;SDS011;6925;47.816;13.072;2022-10-03T01:45:22;3.38;;;1.45;;
13706;SDS011;6925;47.816;13.072;2022-10-03T01:47:57;3.97;;;1.30;;
13706;SDS011;6925;47.816;13.072;2022-10-03T01:50:29;3.75;;;1.48;;
13706;SDS011;6925;47.816;13.072;2022-10-03T01:53:02;3.00;;;1.70;;
13706;SDS011;6925;47.816;13.072;2022-10-03T01:55:36;3.60;;;1.80;;
13706;SDS011;6925;47.816;13.072;2022-10-03T01:58:17;3.50;;;1.75;;
13706;SDS011;6925;47.816;13.072;2022-10-03T02:00:55;4.70;;;1.77;;
13706;SDS011;6925;47.816;13.072;2022-10-03T02:03:33;4.85;;;1.80;;
13706;SDS011;6925;47.816;13.072;2022-10-03T02:06:10;5.32;;;2.10;;
13706;SDS011;6925;47.816;13.072;2022-10-03T02:08:48;5.07;;;1.90;;
13706;SDS011;6925;47.816;13.072;2022-10-03T02:11:25;3.70;;;2.03;;
13706;SDS011;6925;47.816;13.072;2022-10-03T02:13:57;3.70;;;2.20;;
13706;SDS011;6925;47.816;13.072;2022-10-03T02:16:37;6.32;;;2.33;;
13706;SDS011;6925;47.816;13.072;2022-10-03T02:19:11;5.90;;;2.80;;
13706;SDS011;6925;47.816;13.072;2022-10-03T02:21:45;5.68;;;2.88;;
13706;SDS011;6925;47.816;13.072;2022-10-03T02:24:21;4.95;;;3.10;;
13706;SDS011;6925;47.816;13.072;2022-10-03T02:32:59;5.78;;;3.15;;
13706;SDS011;6925;47.816;13.072;2022-10-03T02:36:09;5.45;;;3.30;;
13706;SDS011;6925;47.816;13.072;2022-10-03T02:45:41;5.63;;;3.97;;
13706;SDS011;6925;47.816;13.072;2022-10-03T02:48:36;6.05;;;3.58;;
13706;SDS011;6925;47.816;13.072;2022-10-03T03:03:42;5.53;;;3.22;;
13706;SDS011;6925;47.816;13.072;2022-10-03T03:06:30;6.25;;;3.40;;
13706;SDS011;6925;47.816;13.072;2022-10-03T03:09:24;9.18;;;3.60;;
13706;SDS011;6925;47.816;13.072;2022-10-03T03:12:25;4.72;;;2.72;;
13706;SDS011;6925;47.816;13.072;2022-10-03T03:15:29;5.68;;;3.33;;
13706;SDS011;6925;47.816;13.072;2022-10-03T03:18:28;6.03;;;3.30;;
13706;SDS011;6925;47.816;13.072;2022-10-03T03:21:14;7.97;;;4.30;;
13706;SDS011;6925;47.816;13.072;2022-10-03T03:23:59;6.47;;;3.40;;
13706;SDS011;6925;47.816;13.072;2022-10-03T03:26:43;7.22;;;3.20;;
13706;SDS011;6925;47.816;13.072;2022-10-03T03:29:34;7.38;;;3.65;;
13706;SDS011;6925;47.816;13.072;2022-10-03T03:32:12;6.30;;;3.47;;
13706;SDS011;6925;47.816;13.072;2022-10-03T03:34:53;7.78;;;3.53;;
13706;SDS011;6925;47.816;13.072;2022-10-03T03:37:33;6.20;;;3.38;;
13706;SDS011;6925;47.816;13.072;2022-10-03T03:40:09;7.88;;;4.10;;
13706;SDS011;6925;47.816;13.072;2022-10-03T03:43:03;5.72;;;3.08;;
13706;SDS011;6925;47.816;13.072;2022-10-03T03:45:44;7.95;;;3.92;;
13706;SDS011;6925;47.816;13.072;2022-10-03T03:48:25;6.25;;;3.45;;
13706;SDS011;6925;47.816;13.072;2022-10-03T03:51:09;6.50;;;3.92;;
13706;SDS011;6925;47.816;13.072;2022-10-03T03:53:59;5.30;;;3.47;;
13706;SDS011;6925;47.816;13.072;2022-10-03T03:59:36;6.25;;;3.13;;
13706;SDS011;6925;47.816;13.072;2022-10-03T04:02:16;7.75;;;3.33;;
13706;SDS011;6925;47.816;13.072;2022-10-03T04:04:59;7.32;;;3.15;;
13706;SDS011;6925;47.816;13.072;2022-10-03T04:07:44;6.68;;;3.15;;
13706;SDS011;6925;47.816;13.072;2022-10-03T04:10:40;7.20;;;3.72;;
13706;SDS011;6925;47.816;13.072;2022-10-03T04:13:28;7.80;;;3.28;;
13706;SDS011;6925;47.816;13.072;2022-10-03T04:19:32;5.10;;;3.50;;
13706;SDS011;6925;47.816;13.072;2022-10-03T04:25:18;7.47;;;3.38;;
13706;SDS011;6925;47.816;13.072;2022-10-03T04:28:04;11.48;;;3.78;;
13706;SDS011;6925;47.816;13.072;2022-10-03T04:30:53;7.03;;;3.90;;
13706;SDS011;6925;47.816;13.072;2022-10-03T04:33:34;8.73;;;3.47;;
13706;SDS011;6925;47.816;13.072;2022-10-03T04:36:17;6.43;;;3.40;;
13706;SDS011;6925;47.816;13.072;2022-10-03T04:39:15;7.25;;;4.10;;
13706;SDS011;6925;47.816;13.072;2022-10-03T04:41:49;7.05;;;3.75;;
13706;SDS011;6925;47.816;13.072;2022-10-03T04:44:38;6.68;;;3.70;;
13706;SDS011;6925;47.816;13.072;2022-10-03T04:47:15;7.65;;;4.00;;
13706;SDS011;6925;47.816;13.072;2022-10-03T04:49:51;5.95;;;3.75;;
13706;SDS011;6925;47.816;13.072;2022-10-03T04:52:39;8.27;;;4.00;;
13706;SDS011;6925;47.816;13.072;2022-10-03T04:55:16;6.97;;;3.45;;
13706;SDS011;6925;47.816;13.072;2022-10-03T04:57:53;5.85;;;3.72;;
13706;SDS011;6925;47.816;13.072;2022-10-03T05:00:30;7.75;;;3.67;;
13706;SDS011;6925;47.816;13.072;2022-10-03T05:03:11;8.43;;;3.72;;
13706;SDS011;6925;47.816;13.072;2022-10-03T05:05:50;6.00;;;3.58;;
13706;SDS011;6925;47.816;13.072;2022-10-03T05:08:30;6.40;;;3.30;;
13706;SDS011;6925;47.816;13.072;2022-10-03T05:11:06;7.20;;;4.00;;
13706;SDS011;6925;47.816;13.072;2022-10-03T05:13:44;7.10;;;3.90;;
13706;SDS011;6925;47.816;13.072;2022-10-03T05:16:22;8.05;;;3.47;;
13706;SDS011;6925;47.816;13.072;2022-10-03T05:19:07;9.23;;;3.90;;
13706;SDS011;6925;47.816;13.072;2022-10-03T05:21:54;8.95;;;4.38;;
13706;SDS011;6925;47.816;13.072;2022-10-03T05:24:25;10.77;;;4.25;;
13706;SDS011;6925;47.816;13.072;2022-10-03T05:27:05;6.75;;;3.35;;
13706;SDS011;6925;47.816;13.072;2022-10-03T05:29:38;7.93;;;4.20;;
13706;SDS011;6925;47.816;13.072;2022-10-03T05:32:16;8.35;;;4.10;;
13706;SDS011;6925;47.816;13.072;2022-10-03T05:34:59;7.93;;;3.63;;
13706;SDS011;6925;47.816;13.072;2022-10-03T05:37:44;10.98;;;3.78;;
13706;SDS011;6925;47.816;13.072;2022-10-03T05:40:33;6.47;;;3.67;;
13706;SDS011;6925;47.816;13.072;2022-10-03T05:43:03;9.18;;;3.72;;
13706;SDS011;6925;47.816;13.072;2022-10-03T05:45:43;7.80;;;3.78;;
13706;SDS011;6925;47.816;13.072;2022-10-03T05:48:22;9.82;;;3.72;;
13706;SDS011;6925;47.816;13.072;2022-10-03T05:57:17;7.10;;;3.90;;
13706;SDS011;6925;47.816;13.072;2022-10-03T06:00:02;8.75;;;3.72;;
13706;SDS011;6925;47.816;13.072;2022-10-03T06:06:00;5.32;;;3.25;;
13706;SDS011;6925;47.816;13.072;2022-10-03T06:08:50;8.52;;;4.00;;
13706;SDS011;6925;47.816;13.072;2022-10-03T06:14:32;8.18;;;3.85;;
13706;SDS011;6925;47.816;13.072;2022-10-03T06:17:22;6.47;;;3.42;;
13706;SDS011;6925;47.816;13.072;2022-10-03T06:20:21;6.38;;;3.60;;
13706;SDS011;6925;47.816;13.072;2022-10-03T06:35:52;8.23;;;3.78;;
13706;SDS011;6925;47.816;13.072;2022-10-03T06:41:56;6.57;;;3.67;;
13706;SDS011;6925;47.816;13.072;2022-10-03T06:47:55;8.63;;;3.88;;
13706;SDS011;6925;47.816;13.072;2022-10-03T06:50:58;9.02;;;4.15;;
13706;SDS011;6925;47.816;13.072;2022-10-03T06:54:01;11.45;;;4.43;;
13706;SDS011;6925;47.816;13.072;2022-10-03T06:56:45;6.80;;;4.07;;
13706;SDS011;6925;47.816;13.072;2022-10-03T07:05:40;10.45;;;3.50;;
13706;SDS011;6925;47.816;13.072;2022-10-03T07:08:35;12.95;;;5.97;;
13706;SDS011;6925;47.816;13.072;2022-10-03T07:11:34;10.68;;;4.45;;
13706;SDS011;6925;47.816;13.072;2022-10-03T07:14:35;10.00;;;3.88;;
13706;SDS011;6925;47.816;13.072;2022-10-03T07:17:36;7.65;;;3.33;;
13706;SDS011;6925;47.816;13.072;2022-10-03T07:20:31;8.05;;;3.67;;
13706;SDS011;6925;47.816;13.072;2022-10-03T07:23:26;9.10;;;4.07;;
13706;SDS011;6925;47.816;13.072;2022-10-03T07:26:14;7.35;;;3.70;;
13706;SDS011;6925;47.816;13.072;2022-10-03T07:29:14;8.18;;;4.40;;
13706;SDS011;6925;47.816;13.072;2022-10-03T07:31:57;7.38;;;3.83;;
13706;SDS011;6925;47.816;13.072;2022-10-03T07:38:05;11.02;;;4.15;;
13706;SDS011;6925;47.816;13.072;2022-10-03T07:41:14;6.47;;;3.10;;
13706;SDS011;6925;47.816;13.072;2022-10-03T07:49:44;7.07;;;3.70;;
13706;SDS011;6925;47.816;13.072;2022-10-03T07:52:38;11.50;;;3.72;;
13706;SDS011;6925;47.816;13.072;2022-10-03T07:55:27;6.93;;;2.83;;
13706;SDS011;6925;47.816;13.072;2022-10-03T07:58:11;7.45;;;2.97;;
13706;SDS011;6925;47.816;13.072;2022-10-03T08:00:57;5.47;;;3.28;;
13706;SDS011;6925;47.816;13.072;2022-10-03T08:06:34;4.88;;;3.28;;
13706;SDS011;6925;47.816;13.072;2022-10-03T08:09:24;7.88;;;2.25;;
13706;SDS011;6925;47.816;13.072;2022-10-03T08:15:01;6.88;;;3.70;;
13706;SDS011;6925;47.816;13.072;2022-10-03T08:20:50;5.53;;;2.72;;
13706;SDS011;6925;47.816;13.072;2022-10-03T08:26:39;6.75;;;3.13;;
13706;SDS011;6925;47.816;13.072;2022-10-03T08:29:27;9.70;;;3.63;;
13706;SDS011;6925;47.816;13.072;2022-10-03T08:44:47;6.03;;;2.80;;
13706;SDS011;6925;47.816;13.072;2022-10-03T08:50:42;6.07;;;3.25;;
13706;SDS011;6925;47.816;13.072;2022-10-03T08:53:44;4.45;;;2.33;;
13706;SDS011;6925;47.816;13.072;2022-10-03T08:56:32;6.68;;;2.38;;
13706;SDS011;6925;47.816;13.072;2022-10-03T08:59:48;6.50;;;2.67;;
13706;SDS011;6925;47.816;13.072;2022-10-03T09:08:33;6.82;;;2.88;;
13706;SDS011;6925;47.816;13.072;2022-10-03T09:11:32;8.82;;;3.78;;
13706;SDS011;6925;47.816;13.072;2022-10-03T09:14:34;6.05;;;2.63;;
13706;SDS011;6925;47.816;13.072;2022-10-03T09:20:18;6.03;;;3.20;;
13706;SDS011;6925;47.816;13.072;2022-10-03T09:23:24;5.03;;;2.28;;
13706;SDS011;6925;47.816;13.072;2022-10-03T09:26:16;8.65;;;2.90;;
13706;SDS011;6925;47.816;13.072;2022-10-03T09:29:02;6.15;;;2.58;;
13706;SDS011;6925;47.816;13.072;2022-10-03T09:32:02;6.18;;;2.67;;
13706;SDS011;6925;47.816;13.072;2022-10-03T09:38:01;5.60;;;2.95;;
13706;SDS011;6925;47.816;13.072;2022-10-03T09:44:15;8.40;;;3.17;;
13706;SDS011;6925;47.816;13.072;2022-10-03T09:59:49;7.43;;;2.78;;
13706;SDS011;6925;47.816;13.072;2022-10-03T10:02:44;7.13;;;2.80;;
13706;SDS011;6925;47.816;13.072;2022-10-03T10:12:12;8.93;;;2.70;;
13706;SDS011;6925;47.816;13.072;2022-10-03T10:18:14;6.20;;;3.17;;
13706;SDS011;6925;47.816;13.072;2022-10-03T10:24:34;5.95;;;2.45;;
13706;SDS011;6925;47.816;13.072;2022-10-03T10:27:34;4.82;;;2.10;;
13706;SDS011;6925;47.816;13.072;2022-10-03T10:30:32;6.75;;;3.67;;
13706;SDS011;6925;47.816;13.072;2022-10-03T10:40:02;7.20;;;2.85;;
13706;SDS011;6925;47.816;13.072;2022-10-03T10:46:04;5.05;;;2.33;;
13706;SDS011;6925;47.816;13.072;2022-10-03T10:51:55;9.88;;;2.13;;
13706;SDS011;6925;47.816;13.072;2022-10-03T10:55:24;10.80;;;2.17;;
13706;SDS011;6925;47.816;13.072;2022-10-03T11:05:05;8.15;;;2.20;;
13706;SDS011;6925;47.816;13.072;2022-10-03T11:15:06;3.78;;;2.00;;
13706;SDS011;6925;47.816;13.072;2022-10-03T11:18:17;4.82;;;2.58;;
13706;SDS011;6925;47.816;13.072;2022-10-03T11:21:18;6.85;;;2.30;;
13706;SDS011;6925;47.816;13.072;2022-10-03T11:24:24;6.93;;;2.22;;
13706;SDS011;6925;47.816;13.072;2022-10-03T11:30:21;6.05;;;2.00;;
13706;SDS011;6925;47.816;13.072;2022-10-03T11:33:15;7.18;;;2.03;;
13706;SDS011;6925;47.816;13.072;2022-10-03T11:36:27;6.53;;;1.95;;
13706;SDS011;6925;47.816;13.072;2022-10-03T11:39:18;6.45;;;2.17;;
13706;SDS011;6925;47.816;13.072;2022-10-03T11:41:53;7.10;;;2.03;;
13706;SDS011;6925;47.816;13.072;2022-10-03T11:44:26;4.50;;;2.20;;
13706;SDS011;6925;47.816;13.072;2022-10-03T11:47:22;8.05;;;2.60;;
13706;SDS011;6925;47.816;13.072;2022-10-03T11:53:13;6.32;;;1.88;;
13706;SDS011;6925;47.816;13.072;2022-10-03T11:56:07;8.30;;;2.65;;
13706;SDS011;6925;47.816;13.072;2022-10-03T12:02:00;6.53;;;2.42;;
13706;SDS011;6925;47.816;13.072;2022-10-03T12:04:57;6.47;;;2.47;;
13706;SDS011;6925;47.816;13.072;2022-10-03T12:07:48;8.10;;;2.80;;
13706;SDS011;6925;47.816;13.072;2022-10-03T12:10:43;5.82;;;2.63;;
13706;SDS011;6925;47.816;13.072;2022-10-03T12:13:17;6.35;;;2.47;;
13706;SDS011;6925;47.816;13.072;2022-10-03T12:15:53;6.38;;;2.33;;
13706;SDS011;6925;47.816;13.072;2022-10-03T12:18:25;4.55;;;2.10;;
13706;SDS011;6925;47.816;13.072;2022-10-03T12:21:06;5.40;;;2.55;;
13706;SDS011;6925;47.816;13.072;2022-10-03T12:26:43;5.93;;;2.33;;
13706;SDS011;6925;47.816;13.072;2022-10-03T12:29:18;4.22;;;2.00;;
13706;SDS011;6925;47.816;13.072;2022-10-03T12:37:32;5.18;;;2.47;;
13706;SDS011;6925;47.816;13.072;2022-10-03T12:40:10;3.83;;;2.17;;
13706;SDS011;6925;47.816;13.072;2022-10-03T12:42:47;4.63;;;2.08;;
13706;SDS011;6925;47.816;13.072;2022-10-03T12:45:29;4.88;;;2.05;;
13706;SDS011;6925;47.816;13.072;2022-10-03T12:48:18;4.90;;;2.45;;
13706;SDS011;6925;47.816;13.072;2022-10-03T12:51:09;5.05;;;2.00;;
13706;SDS011;6925;47.816;13.072;2022-10-03T12:53:49;5.20;;;2.20;;
13706;SDS011;6925;47.816;13.072;2022-10-03T12:56:27;5.32;;;1.90;;
13706;SDS011;6925;47.816;13.072;2022-10-03T12:59:12;3.72;;;2.30;;
13706;SDS011;6925;47.816;13.072;2022-10-03T13:04:46;4.60;;;1.92;;
13706;SDS011;6925;47.816;13.072;2022-10-03T13:07:40;5.15;;;1.80;;
13706;SDS011;6925;47.816;13.072;2022-10-03T13:10:20;5.35;;;1.92;;
13706;SDS011;6925;47.816;13.072;2022-10-03T13:12:57;6.72;;;2.30;;
13706;SDS011;6925;47.816;13.072;2022-10-03T13:15:46;4.60;;;1.90;;
13706;SDS011;6925;47.816;13.072;2022-10-03T13:18:31;4.80;;;1.67;;
13706;SDS011;6925;47.816;13.072;2022-10-03T13:21:16;6.50;;;2.28;;
13706;SDS011;6925;47.816;13.072;2022-10-03T13:23:48;5.68;;;2.00;;
13706;SDS011;6925;47.816;13.072;2022-10-03T13:26:22;5.13;;;1.88;;
13706;SDS011;6925;47.816;13.072;2022-10-03T13:29:12;4.75;;;2.28;;
13706;SDS011;6925;47.816;13.072;2022-10-03T13:34:58;5.70;;;2.20;;
13706;SDS011;6925;47.816;13.072;2022-10-03T13:38:12;5.15;;;1.90;;
13706;SDS011;6925;47.816;13.072;2022-10-03T13:40:50;4.55;;;1.70;;
13706;SDS011;6925;47.816;13.072;2022-10-03T13:43:26;6.40;;;2.58;;
13706;SDS011;6925;47.816;13.072;2022-10-03T13:45:59;7.65;;;2.13;;
13706;SDS011;6925;47.816;13.072;2022-10-03T13:48:28;5.97;;;2.10;;
13706;SDS011;6925;47.816;13.072;2022-10-03T13:51:04;6.38;;;2.35;;
13706;SDS011;6925;47.816;13.072;2022-10-03T13:53:46;5.10;;;2.08;;
13706;SDS011;6925;47.816;13.072;2022-10-03T13:56:24;5.68;;;2.10;;
13706;SDS011;6925;47.816;13.072;2022-10-03T13:59:17;4.50;;;2.20;;
13706;SDS011;6925;47.816;13.072;2022-10-03T14:02:03;5.00;;;2.13;;
13706;SDS011;6925;47.816;13.072;2022-10-03T14:04:44;6.68;;;2.10;;
13706;SDS011;6925;47.816;13.072;2022-10-03T14:07:34;6.13;;;2.10;;
13706;SDS011;6925;47.816;13.072;2022-10-03T14:10:16;4.22;;;1.73;;
13706;SDS011;6925;47.816;13.072;2022-10-03T14:13:16;5.38;;;1.88;;
13706;SDS011;6925;47.816;13.072;2022-10-03T14:15:53;10.98;;;1.95;;
13706;SDS011;6925;47.816;13.072;2022-10-03T14:18:35;4.22;;;1.88;;
13706;SDS011;6925;47.816;13.072;2022-10-03T14:27:05;9.48;;;1.83;;
13706;SDS011;6925;47.816;13.072;2022-10-03T14:29:44;3.80;;;1.80;;
13706;SDS011;6925;47.816;13.072;2022-10-03T14:32:26;5.82;;;1.80;;
13706;SDS011;6925;47.816;13.072;2022-10-03T14:35:01;6.18;;;1.80;;
13706;SDS011;6925;47.816;13.072;2022-10-03T14:37:36;4.63;;;1.90;;
13706;SDS011;6925;47.816;13.072;2022-10-03T14:40:13;4.10;;;1.70;;
13706;SDS011;6925;47.816;13.072;2022-10-03T14:45:36;3.75;;;1.80;;
13706;SDS011;6925;47.816;13.072;2022-10-03T14:51:06;5.32;;;1.67;;
13706;SDS011;6925;47.816;13.072;2022-10-03T14:53:39;4.35;;;1.60;;
13706;SDS011;6925;47.816;13.072;2022-10-03T14:56:13;4.43;;;1.67;;
13706;SDS011;6925;47.816;13.072;2022-10-03T14:58:45;6.25;;;1.80;;
13706;SDS011;6925;47.816;13.072;2022-10-03T15:01:16;7.20;;;2.25;;
13706;SDS011;6925;47.816;13.072;2022-10-03T15:03:52;5.45;;;1.80;;
13706;SDS011;6925;47.816;13.072;2022-10-03T15:06:31;4.75;;;1.85;;
13706;SDS011;6925;47.816;13.072;2022-10-03T15:09:01;3.50;;;1.70;;
13706;SDS011;6925;47.816;13.072;2022-10-03T15:11:36;6.13;;;2.03;;
13706;SDS011;6925;47.816;13.072;2022-10-03T15:14:17;5.00;;;1.95;;
13706;SDS011;6925;47.816;13.072;2022-10-03T15:16:48;5.93;;;2.20;;
13706;SDS011;6925;47.816;13.072;2022-10-03T15:19:22;5.05;;;1.67;;
13706;SDS011;6925;47.816;13.072;2022-10-03T15:21:53;6.13;;;2.10;;
13706;SDS011;6925;47.816;13.072;2022-10-03T15:24:29;4.90;;;1.98;;
13706;SDS011;6925;47.816;13.072;2022-10-03T15:27:00;4.25;;;2.03;;
13706;SDS011;6925;47.816;13.072;2022-10-03T15:29:30;6.07;;;1.98;;
13706;SDS011;6925;47.816;13.072;2022-10-03T15:31:58;4.45;;;2.00;;
13706;SDS011;6925;47.816;13.072;2022-10-03T15:34:30;5.80;;;1.92;;
13706;SDS011;6925;47.816;13.072;2022-10-03T15:37:05;6.32;;;2.15;;
13706;SDS011;6925;47.816;13.072;2022-10-03T15:39:38;6.35;;;2.30;;
13706;SDS011;6925;47.816;13.072;2022-10-03T15:42:18;5.60;;;2.53;;
13706;SDS011;6925;47.816;13.072;2022-10-03T15:44:50;8.35;;;2.00;;
13706;SDS011;6925;47.816;13.072;2022-10-03T15:47:19;6.57;;;1.92;;
13706;SDS011;6925;47.816;13.072;2022-10-03T15:49:53;4.65;;;1.90;;
13706;SDS011;6925;47.816;13.072;2022-10-03T15:52:24;4.65;;;1.85;;
13706;SDS011;6925;47.816;13.072;2022-10-03T15:54:59;5.63;;;1.70;;
13706;SDS011;6925;47.816;13.072;2022-10-03T15:57:30;6.20;;;1.70;;
13706;SDS011;6925;47.816;13.072;2022-10-03T16:00:00;5.95;;;2.08;;
13706;SDS011;6925;47.816;13.072;2022-10-03T16:02:30;5.43;;;1.98;;
13706;SDS011;6925;47.816;13.072;2022-10-03T16:05:03;8.15;;;2.42;;
13706;SDS011;6925;47.816;13.072;2022-10-03T16:07:35;6.30;;;2.22;;
13706;SDS011;6925;47.816;13.072;2022-10-03T16:10:10;3.10;;;1.83;;
13706;SDS011;6925;47.816;13.072;2022-10-03T16:12:46;7.65;;;2.58;;
13706;SDS011;6925;47.816;13.072;2022-10-03T16:15:21;6.03;;;2.22;;
13706;SDS011;6925;47.816;13.072;2022-10-03T16:17:54;5.88;;;2.05;;
13706;SDS011;6925;47.816;13.072;2022-10-03T16:20:33;4.13;;;1.85;;
13706;SDS011;6925;47.816;13.072;2022-10-03T16:23:20;6.18;;;2.17;;
13706;SDS011;6925;47.816;13.072;2022-10-03T16:25:57;5.72;;;2.15;;
13706;SDS011;6925;47.816;13.072;2022-10-03T16:31:54;3.85;;;2.17;;
13706;SDS011;6925;47.816;13.072;2022-10-03T16:34:32;3.97;;;1.80;;
13706;SDS011;6925;47.816;13.072;2022-10-03T16:37:15;4.25;;;1.75;;
13706;SDS011;6925;47.816;13.072;2022-10-03T16:40:28;4.20;;;1.85;;
13706;SDS011;6925;47.816;13.072;2022-10-03T16:46:38;9.48;;;2.53;;
13706;SDS011;6925;47.816;13.072;2022-10-03T16:52:39;5.13;;;2.10;;
13706;SDS011;6925;47.816;13.072;2022-10-03T16:55:18;5.63;;;2.38;;
13706;SDS011;6925;47.816;13.072;2022-10-03T17:02:42;6.93;;;2.50;;
13706;SDS011;6925;47.816;13.072;2022-10-03T17:08:11;5.68;;;2.25;;
13706;SDS011;6925;47.816;13.072;2022-10-03T17:11:05;3.33;;;2.25;;
13706;SDS011;6925;47.816;13.072;2022-10-03T17:13:38;4.88;;;2.08;;
13706;SDS011;6925;47.816;13.072;2022-10-03T17:16:11;4.93;;;2.10;;
13706;SDS011;6925;47.816;13.072;2022-10-03T17:19:00;6.13;;;2.25;;
13706;SDS011;6925;47.816;13.072;2022-10-03T17:21:46;5.35;;;2.40;;
13706;SDS011;6925;47.816;13.072;2022-10-03T17:27:10;7.82;;;2.28;;
13706;SDS011;6925;47.816;13.072;2022-10-03T17:29:43;5.60;;;2.17;;
13706;SDS011;6925;47.816;13.072;2022-10-03T17:32:18;6.82;;;2.20;;
13706;SDS011;6925;47.816;13.072;2022-10-03T17:43:37;6.93;;;2.10;;
13706;SDS011;6925;47.816;13.072;2022-10-03T17:46:11;3.40;;;2.00;;
13706;SDS011;6925;47.816;13.072;2022-10-03T17:48:44;5.03;;;2.10;;
13706;SDS011;6925;47.816;13.072;2022-10-03T17:51:29;6.45;;;2.00;;
13706;SDS011;6925;47.816;13.072;2022-10-03T17:54:03;5.57;;;1.83;;
13706;SDS011;6925;47.816;13.072;2022-10-03T17:56:36;6.93;;;2.00;;
13706;SDS011;6925;47.816;13.072;2022-10-03T17:59:13;7.32;;;2.63;;
13706;SDS011;6925;47.816;13.072;2022-10-03T18:01:48;5.68;;;2.45;;
13706;SDS011;6925;47.816;13.072;2022-10-03T18:04:28;5.07;;;2.42;;
13706;SDS011;6925;47.816;13.072;2022-10-03T18:07:20;5.70;;;2.42;;
13706;SDS011;6925;47.816;13.072;2022-10-03T18:09:51;4.70;;;2.33;;
13706;SDS011;6925;47.816;13.072;2022-10-03T18:12:21;4.53;;;2.17;;
13706;SDS011;6925;47.816;13.072;2022-10-03T18:18:06;6.68;;;2.22;;
13706;SDS011;6925;47.816;13.072;2022-10-03T18:20:54;4.72;;;2.15;;
13706;SDS011;6925;47.816;13.072;2022-10-03T18:23:37;4.03;;;2.00;;
13706;SDS011;6925;47.816;13.072;2022-10-03T18:26:21;6.22;;;2.13;;
13706;SDS011;6925;47.816;13.072;2022-10-03T18:28:57;3.88;;;2.03;;
13706;SDS011;6925;47.816;13.072;2022-10-03T18:31:37;6.93;;;2.47;;
13706;SDS011;6925;47.816;13.072;2022-10-03T18:36:44;5.97;;;2.00;;
13706;SDS011;6925;47.816;13.072;2022-10-03T18:39:14;3.75;;;2.00;;
13706;SDS011;6925;47.816;13.072;2022-10-03T18:41:44;5.20;;;1.95;;
13706;SDS011;6925;47.816;13.072;2022-10-03T18:44:14;8.02;;;2.30;;
13706;SDS011;6925;47.816;13.072;2022-10-03T18:46:45;5.93;;;1.95;;
13706;SDS011;6925;47.816;13.072;2022-10-03T18:49:17;4.85;;;1.70;;
13706;SDS011;6925;47.816;13.072;2022-10-03T18:51:54;5.93;;;2.35;;
13706;SDS011;6925;47.816;13.072;2022-10-03T18:54:28;6.50;;;2.25;;
13706;SDS011;6925;47.816;13.072;2022-10-03T18:57:13;3.70;;;2.17;;
13706;SDS011;6925;47.816;13.072;2022-10-03T18:59:47;5.40;;;2.28;;
13706;SDS011;6925;47.816;13.072;2022-10-03T19:02:23;7.10;;;2.50;;
13706;SDS011;6925;47.816;13.072;2022-10-03T19:04:55;5.70;;;2.33;;
13706;SDS011;6925;47.816;13.072;2022-10-03T19:07:25;7.68;;;2.20;;
13706;SDS011;6925;47.816;13.072;2022-10-03T19:10:09;5.25;;;2.25;;
13706;SDS011;6925;47.816;13.072;2022-10-03T19:12:53;6.95;;;2.53;;
13706;SDS011;6925;47.816;13.072;2022-10-03T19:15:37;6.95;;;2.45;;
13706;SDS011;6925;47.816;13.072;2022-10-03T19:18:22;6.45;;;2.35;;
13706;SDS011;6925;47.816;13.072;2022-10-03T19:20:52;6.85;;;2.90;;
13706;SDS011;6925;47.816;13.072;2022-10-03T19:23:22;5.03;;;2.30;;
13706;SDS011;6925;47.816;13.072;2022-10-03T19:25:55;7.13;;;2.83;;
13706;SDS011;6925;47.816;13.072;2022-10-03T19:28:26;5.13;;;2.17;;
13706;SDS011;6925;47.816;13.072;2022-10-03T19:30:56;7.18;;;2.05;;
13706;SDS011;6925;47.816;13.072;2022-10-03T19:33:30;5.03;;;2.35;;
13706;SDS011;6925;47.816;13.072;2022-10-03T19:36:02;6.43;;;2.10;;
13706;SDS011;6925;47.816;13.072;2022-10-03T19:38:32;4.43;;;2.10;;
13706;SDS011;6925;47.816;13.072;2022-10-03T19:41:05;5.57;;;1.70;;
13706;SDS011;6925;47.816;13.072;2022-10-03T19:43:41;6.80;;;2.25;;
13706;SDS011;6925;47.816;13.072;2022-10-03T19:46:11;7.07;;;1.92;;
13706;SDS011;6925;47.816;13.072;2022-10-03T19:48:50;7.60;;;2.20;;
13706;SDS011;6925;47.816;13.072;2022-10-03T19:51:32;5.97;;;1.83;;
13706;SDS011;6925;47.816;13.072;2022-10-03T19:54:00;8.65;;;2.55;;
13706;SDS011;6925;47.816;13.072;2022-10-03T19:56:36;6.43;;;2.05;;
13706;SDS011;6925;47.816;13.072;2022-10-03T19:59:05;7.90;;;2.45;;
13706;SDS011;6925;47.816;13.072;2022-10-03T20:01:41;5.45;;;2.35;;
13706;SDS011;6925;47.816;13.072;2022-10-03T20:04:12;3.85;;;2.35;;
13706;SDS011;6925;47.816;13.072;2022-10-03T20:06:43;9.07;;;2.20;;
13706;SDS011;6925;47.816;13.072;2022-10-03T20:09:17;6.35;;;2.35;;
13706;SDS011;6925;47.816;13.072;2022-10-03T20:11:50;6.20;;;2.53;;
13706;SDS011;6925;47.816;13.072;2022-10-03T20:14:22;6.15;;;2.28;;
13706;SDS011;6925;47.816;13.072;2022-10-03T20:16:52;6.00;;;2.08;;
13706;SDS011;6925;47.816;13.072;2022-10-03T20:19:24;7.80;;;2.50;;
13706;SDS011;6925;47.816;13.072;2022-10-03T20:21:53;5.82;;;2.35;;
13706;SDS011;6925;47.816;13.072;2022-10-03T20:24:27;4.45;;;2.20;;
13706;SDS011;6925;47.816;13.072;2022-10-03T20:27:01;5.75;;;2.38;;
13706;SDS011;6925;47.816;13.072;2022-10-03T20:29:38;6.03;;;2.30;;
13706;SDS011;6925;47.816;13.072;2022-10-03T20:32:13;5.95;;;2.38;;
13706;SDS011;6925;47.816;13.072;2022-10-03T20:34:44;4.85;;;2.55;;
13706;SDS011;6925;47.816;13.072;2022-10-03T20:37:30;7.70;;;2.28;;
13706;SDS011;6925;47.816;13.072;2022-10-03T20:40:27;5.72;;;2.25;;